Time;durP1;ratioP1;P1;durP2;ratioP2;P2;SDS_P1;SDS_P2;PMS_P1;PMS_P2;Temp;Humidity;BMP_temperature;BMP_pressure;BME280_temperature;BME280_humidity;BME280_pressure;Samples;Min_cycle;Max_cycle;Signal;HPM_P1;HPM_P2
2023/01/04 00:01:32;;;;;;;17.73;7.97;;;2.40;99.90;;;;;;4935318;29;20527;-85
2023/01/04 00:04:00;;;;;;;85.93;11.65;;;2.40;99.90;;;;;;4969742;28;20430;-85
2023/01/04 00:06:27;;;;;;;96.57;10.63;;;2.40;99.90;;;;;;4972299;28;20046;-85
2023/01/04 00:08:55;;;;;;;15.70;6.68;;;2.40;99.90;;;;;;4969540;28;20043;-85
2023/01/04 00:11:23;;;;;;;8.07;7.30;;;2.20;99.90;;;;;;4958969;28;20434;-85
2023/01/04 00:13:54;;;;;;;13.80;6.72;;;2.30;99.90;;;;;;4953207;28;20055;-85
2023/01/04 00:16:24;;;;;;;124.13;12.95;;;2.30;99.90;;;;;;4952702;28;20537;-84
2023/01/04 00:18:53;;;;;;;35.47;7.95;;;2.20;99.90;;;;;;4952378;29;20055;-85
2023/01/04 00:21:27;;;;;;;17.30;9.65;;;2.20;99.90;;;;;;4981134;28;20050;-84
2023/01/04 00:23:57;;;;;;;57.28;9.07;;;2.20;99.90;;;;;;4939057;28;20419;-85
2023/01/04 00:26:30;;;;;;;22.98;6.75;;;2.00;99.90;;;;;;4936018;29;20066;-85
2023/01/04 00:29:01;;;;;;;16.45;7.35;;;1.90;99.90;;;;;;4952173;29;20046;-85
2023/01/04 00:31:29;;;;;;;18.45;7.15;;;2.00;99.90;;;;;;4919388;29;20051;-85
2023/01/04 00:34:00;;;;;;;8.68;6.82;;;2.00;99.90;;;;;;4952872;28;20077;-85
2023/01/04 00:36:28;;;;;;;9.52;6.00;;;2.00;99.90;;;;;;4971630;28;20043;-85
2023/01/04 00:39:13;;;;;;;20.83;7.78;;;1.90;99.90;;;;;;4969778;28;20466;-85
2023/01/04 00:41:45;;;;;;;20.20;6.85;;;1.90;99.90;;;;;;4953348;28;20055;-85
2023/01/04 00:44:30;;;;;;;14.60;6.18;;;1.90;99.90;;;;;;4970437;28;20414;-85
2023/01/04 00:46:59;;;;;;;11.05;5.70;;;1.90;99.90;;;;;;4954577;28;20055;-85
2023/01/04 00:49:29;;;;;;;40.13;8.30;;;1.80;99.90;;;;;;4953488;28;20054;-85
2023/01/04 00:51:56;;;;;;;53.88;8.68;;;1.80;99.90;;;;;;4970273;28;20055;-85
2023/01/04 00:54:25;;;;;;;17.50;5.40;;;1.70;99.90;;;;;;4937391;28;20430;-85
2023/01/04 00:56:53;;;;;;;18.10;7.63;;;1.70;99.90;;;;;;4970181;28;20461;-84
2023/01/04 00:59:21;;;;;;;20.65;8.07;;;1.70;99.90;;;;;;4954936;28;20054;-85
2023/01/04 01:01:50;;;;;;;47.17;8.13;;;1.70;99.90;;;;;;4971637;28;20061;-85
2023/01/04 01:04:21;;;;;;;14.68;6.57;;;1.60;99.90;;;;;;4969475;28;20043;-85
2023/01/04 01:06:50;;;;;;;7.50;6.20;;;1.60;99.90;;;;;;4969722;28;20062;-85
2023/01/04 01:09:21;;;;;;;11.48;5.68;;;1.70;99.90;;;;;;4969718;28;20039;-85
2023/01/04 01:11:51;;;;;;;21.65;7.22;;;1.70;99.90;;;;;;4970714;28;20047;-85
2023/01/04 01:14:23;;;;;;;11.55;5.85;;;1.70;99.90;;;;;;4970853;28;20410;-84
2023/01/04 01:16:51;;;;;;;;;;;1.70;99.90;;;;;;4970076;28;20046;-85
2023/01/04 01:19:27;;;;;;;12.13;6.93;;;1.80;99.90;;;;;;4969942;28;19926;-84
2023/01/04 01:21:56;;;;;;;12.73;8.10;;;1.90;99.90;;;;;;4966575;28;20042;-85
2023/01/04 01:24:26;;;;;;;5.97;5.45;;;1.80;99.90;;;;;;4969398;28;20062;-85
2023/01/04 01:26:54;;;;;;;21.83;7.47;;;1.80;99.90;;;;;;4953159;28;20086;-85
2023/01/04 01:29:22;;;;;;;14.45;7.13;;;1.90;99.90;;;;;;4969872;28;20039;-85
2023/01/04 01:31:49;;;;;;;14.52;7.30;;;1.80;99.90;;;;;;4951902;28;20035;-85
2023/01/04 01:34:18;;;;;;;7.32;5.32;;;1.80;99.90;;;;;;4970686;28;20047;-85
2023/01/04 01:36:48;;;;;;;17.42;6.82;;;1.70;99.90;;;;;;4968323;28;20137;-85
2023/01/04 01:39:15;;;;;;;33.22;8.48;;;1.70;99.90;;;;;;4968514;28;20043;-84
2023/01/04 01:41:50;;;;;;;12.13;7.10;;;1.60;99.90;;;;;;4953150;28;20055;-85
2023/01/04 01:44:45;;;;;;;12.43;10.05;;;1.70;99.90;;;;;;4936871;28;20050;-84
2023/01/04 01:47:16;;;;;;;9.13;6.65;;;1.70;99.90;;;;;;4971097;28;20784;-85
2023/01/04 01:49:46;;;;;;;10.03;9.03;;;1.70;99.90;;;;;;4969033;28;20046;-85
2023/01/04 01:52:20;;;;;;;10.43;7.07;;;1.70;99.90;;;;;;4968873;28;20047;-85
2023/01/04 01:54:56;;;;;;;8.80;6.82;;;1.80;99.90;;;;;;4970230;28;20063;-85
2023/01/04 01:57:26;;;;;;;12.30;7.40;;;1.80;99.90;;;;;;4969933;28;20050;-85
2023/01/04 02:00:00;;;;;;;10.05;7.20;;;1.80;99.90;;;;;;4952555;28;20066;-85
2023/01/04 02:02:28;;;;;;;9.10;6.38;;;1.70;99.90;;;;;;4970211;28;20055;-85
2023/01/04 02:05:02;;;;;;;8.32;6.80;;;1.80;99.90;;;;;;4952408;28;20074;-85
2023/01/04 02:07:30;;;;;;;11.23;7.72;;;1.80;99.90;;;;;;4968292;28;20058;-85
2023/01/04 02:09:59;;;;;;;11.77;8.25;;;1.80;99.90;;;;;;4968340;28;20059;-85
2023/01/04 02:12:28;;;;;;;7.07;6.35;;;1.80;99.90;;;;;;4951776;28;20649;-84
2023/01/04 02:14:59;;;;;;;8.87;6.33;;;1.80;99.90;;;;;;4952568;28;20051;-84
2023/01/04 02:17:33;;;;;;;11.93;7.82;;;1.70;99.90;;;;;;4936322;28;20042;-85
2023/01/04 02:20:34;;;;;;;8.60;5.80;;;1.70;99.90;;;;;;4955603;28;20050;-85
2023/01/04 02:23:49;;;;;;;10.18;7.55;;;1.70;99.90;;;;;;4952107;28;20055;-85
2023/01/04 02:26:48;;;;;;;8.27;7.10;;;1.70;99.90;;;;;;4948283;29;20059;-85
2023/01/04 02:29:35;;;;;;;15.18;9.65;;;1.80;99.90;;;;;;4933322;29;20050;-84
2023/01/04 02:32:16;;;;;;;8.68;6.50;;;1.70;99.90;;;;;;4950130;28;20059;-84
2023/01/04 02:34:54;;;;;;;52.55;8.57;;;1.70;99.90;;;;;;4948829;29;20415;-84
2023/01/04 02:37:36;;;;;;;44.17;7.40;;;1.70;99.90;;;;;;4931968;29;20066;-85
2023/01/04 02:40:17;;;;;;;12.93;7.15;;;1.70;99.90;;;;;;4978879;28;20054;-85
2023/01/04 02:46:08;;;;;;;10.35;7.63;;;1.70;99.90;;;;;;4915090;28;20055;-85
2023/01/04 02:51:30;;;;;;;17.95;7.88;;;1.70;99.90;;;;;;4977480;28;20042;-85
2023/01/04 02:54:20;;;;;;;14.45;8.38;;;1.70;99.90;;;;;;4970340;28;20065;-85
2023/01/04 02:57:06;;;;;;;14.48;6.05;;;1.60;99.90;;;;;;4971442;28;20061;-85
2023/01/04 02:59:42;;;;;;;27.48;7.07;;;1.50;99.90;;;;;;4988647;28;20434;-85
2023/01/04 03:06:14;;;;;;;9.88;6.95;;;1.50;99.90;;;;;;4970730;28;20275;-85
2023/01/04 03:09:06;;;;;;;7.65;6.45;;;1.40;99.90;;;;;;4955762;28;20046;-85
2023/01/04 03:14:38;;;;;;;6.97;5.68;;;1.30;99.90;;;;;;4971066;28;20054;-84
2023/01/04 03:17:15;;;;;;;9.27;8.32;;;1.10;99.90;;;;;;4977622;28;20046;-85
2023/01/04 03:19:50;;;;;;;9.40;6.18;;;1.10;99.90;;;;;;4971647;28;20038;-85
2023/01/04 03:49:43;;;;;;;6.50;6.00;;;0.90;99.90;;;;;;4920693;29;20052;-85
2023/01/04 03:52:16;;;;;;;4.50;4.10;;;0.90;99.90;;;;;;4936631;29;20048;-84
2023/01/04 03:54:46;;;;;;;5.82;5.00;;;1.00;99.90;;;;;;4920920;29;20075;-85
2023/01/04 03:57:15;;;;;;;4.25;3.78;;;1.10;99.90;;;;;;4921731;29;20040;-85
2023/01/04 03:59:49;;;;;;;4.80;4.00;;;1.20;99.90;;;;;;4955487;28;20051;-85
2023/01/04 04:02:22;;;;;;;5.00;4.60;;;1.40;99.90;;;;;;4955837;29;20070;-84
2023/01/04 04:10:23;;;;;;;4.68;3.80;;;1.50;99.90;;;;;;4960057;28;20050;-84
2023/01/04 04:12:51;;;;;;;4.20;3.47;;;1.50;99.90;;;;;;4958592;28;20057;-85
2023/01/04 04:15:19;;;;;;;3.78;3.53;;;1.50;99.90;;;;;;4959166;28;20046;-85
2023/01/04 04:17:47;;;;;;;4.95;4.28;;;1.50;99.90;;;;;;4959867;28;20065;-85
2023/01/04 04:20:15;;;;;;;4.70;4.05;;;1.40;99.90;;;;;;4975035;28;20051;-85
2023/01/04 04:22:42;;;;;;;4.53;3.15;;;1.50;99.90;;;;;;4959579;28;20047;-85
2023/01/04 04:25:10;;;;;;;4.32;3.92;;;1.40;99.90;;;;;;4976660;28;20045;-85
2023/01/04 04:27:38;;;;;;;4.55;4.15;;;1.40;99.90;;;;;;4943665;28;20390;-85
2023/01/04 04:30:07;;;;;;;7.22;4.88;;;1.50;99.90;;;;;;4976724;28;20078;-85
2023/01/04 04:32:35;;;;;;;5.70;3.33;;;1.60;99.90;;;;;;4958707;28;20047;-85
2023/01/04 04:39:34;;;;;;;7.38;5.15;;;1.80;99.90;;;;;;4973128;28;20053;-85
2023/01/04 04:42:02;;;;;;;8.60;4.60;;;1.90;99.90;;;;;;4959359;28;20042;-85
2023/01/04 04:44:30;;;;;;;6.13;4.28;;;2.00;99.90;;;;;;4943765;28;20051;-85
2023/01/04 04:46:57;;;;;;;85.45;7.47;;;2.00;99.90;;;;;;4977222;28;20058;-85
2023/01/04 04:49:25;;;;;;;12.93;4.15;;;2.10;99.90;;;;;;4976439;28;20422;-84
2023/01/04 04:51:52;;;;;;;85.43;8.95;;;2.10;99.90;;;;;;4960622;28;20051;-85
2023/01/04 04:54:20;;;;;;;31.95;3.70;;;2.10;99.90;;;;;;4965199;28;20043;-85
2023/01/04 04:56:48;;;;;;;85.40;8.00;;;2.10;99.90;;;;;;4997975;28;20038;-85
2023/01/04 04:59:19;;;;;;;18.73;4.95;;;2.10;99.90;;;;;;4997230;28;20039;-83
2023/01/04 05:01:47;;;;;;;85.35;6.80;;;2.10;99.90;;;;;;4980981;28;20049;-85
2023/01/04 05:04:18;;;;;;;13.95;4.75;;;2.10;99.90;;;;;;4980397;28;20043;-85
2023/01/04 05:06:48;;;;;;;4.85;4.35;;;2.00;99.90;;;;;;4981777;28;20042;-85
2023/01/04 05:09:16;;;;;;;4.88;3.42;;;2.00;99.90;;;;;;4996602;28;20043;-85
2023/01/04 05:14:31;;;;;;;8.70;4.18;;;1.90;99.90;;;;;;4981301;28;20039;-86
2023/01/04 05:16:59;;;;;;;4.13;3.22;;;1.80;99.90;;;;;;4981652;28;20046;-86
2023/01/04 05:19:27;;;;;;;3.55;3.17;;;1.80;99.90;;;;;;4997430;28;20048;-86
2023/01/04 05:21:55;;;;;;;4.38;3.67;;;1.70;99.90;;;;;;4999440;28;20064;-87
2023/01/04 05:24:24;;;;;;;25.23;5.95;;;1.70;99.90;;;;;;4960649;28;20031;-86
2023/01/04 05:26:51;;;;;;;5.47;3.95;;;1.70;99.90;;;;;;4993059;28;20045;-85
2023/01/04 05:32:29;;;;;;;10.75;4.07;;;1.40;99.90;;;;;;4997641;28;20044;-87
2023/01/04 05:34:56;;;;;;;3.90;3.28;;;1.20;99.90;;;;;;4964320;28;20060;-88
2023/01/04 05:37:25;;;;;;;3.65;3.15;;;1.10;99.90;;;;;;4998032;28;20037;-88
2023/01/04 05:39:52;;;;;;;5.30;4.72;;;1.10;99.90;;;;;;4979647;28;20047;-88
2023/01/04 05:42:26;;;;;;;10.02;4.10;;;1.00;99.90;;;;;;4997292;28;20045;-87
2023/01/04 05:44:56;;;;;;;14.93;3.38;;;0.90;99.90;;;;;;4996702;28;20037;-87
2023/01/04 05:47:25;;;;;;;60.17;5.78;;;0.70;99.90;;;;;;4995960;28;20030;-88
2023/01/04 05:49:53;;;;;;;6.97;3.70;;;0.70;99.90;;;;;;4990130;28;20034;-88
2023/01/04 05:52:21;;;;;;;36.03;4.82;;;0.80;99.90;;;;;;4992363;28;20260;-89
2023/01/04 05:54:49;;;;;;;32.80;3.67;;;0.70;99.90;;;;;;4996326;28;20038;-85
2023/01/04 05:57:17;;;;;;;7.55;2.70;;;0.70;99.90;;;;;;4963613;28;20042;-85
2023/01/04 05:59:44;;;;;;;13.52;2.60;;;0.60;99.90;;;;;;4981899;28;20070;-86
2023/01/04 06:02:16;;;;;;;3.90;3.60;;;0.50;99.90;;;;;;4980527;28;20174;-86
2023/01/04 06:04:44;;;;;;;6.85;3.90;;;0.60;99.90;;;;;;4999612;28;20052;-85
2023/01/04 06:07:12;;;;;;;15.85;4.47;;;0.50;99.90;;;;;;5015745;28;20048;-85
2023/01/04 06:09:40;;;;;;;21.42;3.97;;;0.30;99.90;;;;;;4998011;28;20048;-86
2023/01/04 06:12:09;;;;;;;9.38;3.72;;;0.10;99.90;;;;;;5015434;28;20034;-85
2023/01/04 06:14:37;;;;;;;6.18;3.78;;;-0.10;99.90;;;;;;5016491;28;20052;-85
2023/01/04 06:17:05;;;;;;;11.82;3.03;;;-0.10;99.90;;;;;;4978106;28;20042;-85
2023/01/04 06:19:33;;;;;;;3.17;2.97;;;0.00;99.90;;;;;;4988534;28;20054;-84
2023/01/04 06:22:01;;;;;;;2.83;2.58;;;0.10;99.90;;;;;;4986256;28;20497;-85
2023/01/04 06:24:29;;;;;;;3.78;3.13;;;0.20;99.90;;;;;;4932558;29;20055;-85
2023/01/04 06:26:57;;;;;;;3.35;3.05;;;0.30;99.90;;;;;;4948890;28;20388;-85
2023/01/04 06:29:25;;;;;;;3.90;3.50;;;0.40;99.90;;;;;;4948815;29;20043;-85
2023/01/04 06:31:52;;;;;;;9.52;3.60;;;0.10;99.90;;;;;;4949085;28;20042;-86
2023/01/04 06:34:20;;;;;;;3.58;2.42;;;-0.20;99.90;;;;;;4948998;29;20062;-84
2023/01/04 06:36:56;;;;;;;6.07;3.33;;;-0.50;99.90;;;;;;4948268;28;20059;-84
2023/01/04 06:39:24;;;;;;;3.80;3.50;;;-0.50;99.90;;;;;;4960427;28;20418;-85
2023/01/04 06:41:52;;;;;;;2.95;2.60;;;-0.20;99.90;;;;;;4952275;28;20506;-83
2023/01/04 06:44:20;;;;;;;3.97;3.47;;;0.00;99.90;;;;;;4951741;28;20506;-85
2023/01/04 06:46:47;;;;;;;3.33;3.03;;;0.10;99.90;;;;;;4970166;28;20426;-85
2023/01/04 06:49:16;;;;;;;2.58;2.33;;;0.00;99.90;;;;;;4966409;28;20046;-85
2023/01/04 06:51:44;;;;;;;3.58;2.45;;;0.00;99.90;;;;;;4951280;28;20502;-85
2023/01/04 06:54:12;;;;;;;2.42;1.73;;;0.10;99.90;;;;;;4951143;28;20487;-85
2023/01/04 06:56:40;;;;;;;2.38;2.17;;;0.30;99.90;;;;;;4938443;28;20507;-85
2023/01/04 06:59:08;;;;;;;2.25;2.15;;;0.40;99.90;;;;;;4947103;28;20055;-85
2023/01/04 07:01:36;;;;;;;2.03;1.92;;;0.60;99.90;;;;;;4933264;28;20423;-85
2023/01/04 07:04:04;;;;;;;1.63;1.52;;;0.50;99.90;;;;;;4953737;28;20048;-85
2023/01/04 07:06:32;;;;;;;1.98;1.88;;;0.80;99.90;;;;;;4969573;28;20051;-86
2023/01/04 07:08:59;;;;;;;3.95;2.08;;;1.00;99.90;;;;;;4971081;28;20082;-86
2023/01/04 07:11:27;;;;;;;1.85;1.75;;;1.50;99.90;;;;;;4973252;28;20051;-86
2023/01/04 07:13:54;;;;;;;2.20;2.05;;;1.80;99.90;;;;;;4956648;28;20123;-85
2023/01/04 07:16:22;;;;;;;1.73;1.63;;;2.10;99.90;;;;;;4955818;28;20097;-85
2023/01/04 07:18:52;;;;;;;1.90;1.55;;;2.20;99.90;;;;;;4956354;28;20067;-87
2023/01/04 07:21:20;;;;;;;2.00;1.90;;;2.40;99.90;;;;;;4949278;28;20043;-85
2023/01/04 07:23:48;;;;;;;1.73;1.52;;;2.70;99.90;;;;;;4964088;28;20047;-88
2023/01/04 07:26:16;;;;;;;2.42;1.95;;;2.70;99.90;;;;;;4953960;28;20058;-89
2023/01/04 07:31:29;;;;;;;1.83;1.73;;;3.10;99.90;;;;;;4955502;28;20050;-86
2023/01/04 07:33:57;;;;;;;1.73;1.63;;;3.20;99.90;;;;;;4955790;28;20081;-86
2023/01/04 07:36:24;;;;;;;2.45;1.90;;;3.10;99.90;;;;;;4972632;28;20110;-85
2023/01/04 07:38:52;;;;;;;2.35;2.15;;;2.90;99.90;;;;;;4972369;28;20059;-86
2023/01/04 07:41:20;;;;;;;1.70;1.60;;;2.90;99.90;;;;;;4954923;28;20042;-86
2023/01/04 07:43:47;;;;;;;2.60;2.05;;;3.00;99.90;;;;;;4955431;28;20081;-86
2023/01/04 07:46:15;;;;;;;1.92;1.83;;;3.10;99.90;;;;;;4939909;28;20047;-86
2023/01/04 07:48:42;;;;;;;1.42;1.33;;;3.20;99.90;;;;;;4955415;28;20051;-86
2023/01/04 07:51:10;;;;;;;2.00;1.83;;;3.30;99.90;;;;;;4972525;28;20061;-86
2023/01/04 07:53:37;;;;;;;2.28;2.08;;;3.30;99.90;;;;;;4971049;28;20374;-86
2023/01/04 07:56:06;;;;;;;1.90;1.75;;;3.50;99.90;;;;;;4955163;28;20062;-86
2023/01/04 07:58:33;;;;;;;2.03;1.48;;;3.60;99.90;;;;;;4972524;28;20479;-86
2023/01/04 08:01:06;;;;;;;5.55;2.40;;;3.60;99.90;;;;;;4972301;28;20495;-86
2023/01/04 08:03:34;;;;;;;2.80;2.60;;;3.30;99.90;;;;;;4972143;28;20058;-85
2023/01/04 08:06:06;;;;;;;5.10;4.68;;;2.90;99.90;;;;;;4939661;28;20051;-86
2023/01/04 08:08:34;;;;;;;3.28;3.00;;;2.60;99.90;;;;;;4954234;28;20073;-85
2023/01/04 08:11:14;;;;;;;4.00;3.47;;;2.50;99.90;;;;;;4954167;28;20490;-86
2023/01/04 08:13:42;;;;;;;2.33;2.22;;;2.50;99.90;;;;;;4953600;28;20057;-86
2023/01/04 08:16:31;;;;;;;2.63;2.40;;;2.60;99.90;;;;;;4971272;28;20046;-85
2023/01/04 08:19:04;;;;;;;2.45;2.25;;;2.80;99.90;;;;;;4972507;28;20054;-85
2023/01/04 08:21:33;;;;;;;2.97;2.42;;;2.80;99.90;;;;;;4954583;28;20043;-86
2023/01/04 08:24:02;;;;;;;2.00;1.90;;;3.00;99.90;;;;;;4951910;28;20047;-86
2023/01/04 08:26:30;;;;;;;2.97;2.72;;;3.20;99.90;;;;;;4951964;29;20047;-85
2023/01/04 08:28:58;;;;;;;2.20;1.80;;;3.20;99.90;;;;;;4952651;28;20043;-86
2023/01/04 08:31:31;;;;;;;3.08;2.85;;;3.30;99.90;;;;;;4951754;29;20055;-86
2023/01/04 08:34:05;;;;;;;2.58;2.38;;;3.40;99.90;;;;;;4952122;29;20070;-86
2023/01/04 08:36:48;;;;;;;2.22;1.85;;;3.60;99.90;;;;;;4935177;29;20566;-85
2023/01/04 08:39:16;;;;;;;1.70;1.60;;;3.60;99.90;;;;;;4928495;28;20046;-85
2023/01/04 08:41:49;;;;;;;2.78;2.58;;;3.70;99.90;;;;;;4953662;28;20431;-87
2023/01/04 08:44:37;;;;;;;1.88;1.77;;;3.90;99.90;;;;;;4971672;28;20039;-86
2023/01/04 08:47:05;;;;;;;1.92;1.83;;;4.20;99.90;;;;;;4971658;28;20039;-86
2023/01/04 08:49:34;;;;;;;1.92;1.83;;;4.40;99.90;;;;;;4971432;28;20039;-87
2023/01/04 08:52:03;;;;;;;1.90;1.80;;;4.60;99.90;;;;;;4953200;28;20047;-86
2023/01/04 08:54:31;;;;;;;1.98;1.65;;;4.90;99.90;;;;;;4954219;28;20042;-86
2023/01/04 08:56:59;;;;;;;2.00;1.90;;;5.00;99.90;;;;;;4971010;28;20046;-86
2023/01/04 08:59:27;;;;;;;1.73;1.15;;;5.20;99.90;;;;;;4971548;28;20051;-86
2023/01/04 09:01:54;;;;;;;1.42;1.38;;;5.30;99.90;;;;;;4971641;28;20054;-85
2023/01/04 09:04:31;;;;;;;1.83;1.73;;;5.50;99.90;;;;;;4953129;28;20050;-86
2023/01/04 09:06:59;;;;;;;2.30;1.83;;;5.70;99.90;;;;;;4970453;28;20142;-86
2023/01/04 09:09:28;;;;;;;1.77;1.67;;;5.80;99.90;;;;;;4953098;28;20062;-86
2023/01/04 09:11:56;;;;;;;1.90;1.50;;;5.90;99.90;;;;;;4970654;28;20035;-85
2023/01/04 09:14:23;;;;;;;1.98;1.77;;;6.00;99.90;;;;;;4954261;28;20581;-85
2023/01/04 09:16:51;;;;;;;2.20;1.40;;;6.10;99.90;;;;;;4970437;28;20066;-85
2023/01/04 09:19:18;;;;;;;2.03;1.83;;;6.20;99.90;;;;;;4953031;28;20367;-86
2023/01/04 09:21:49;;;;;;;2.33;2.13;;;6.40;99.90;;;;;;4971030;28;20573;-85
2023/01/04 09:24:17;;;;;;;1.80;1.70;;;6.50;99.90;;;;;;4949458;28;20530;-85
2023/01/04 09:26:46;;;;;;;1.60;1.50;;;6.60;99.90;;;;;;4950591;28;20507;-85
2023/01/04 09:29:14;;;;;;;2.08;1.85;;;6.60;99.90;;;;;;4951567;29;20035;-85
2023/01/04 09:31:41;;;;;;;1.20;1.15;;;6.70;99.90;;;;;;4950861;29;20036;-86
2023/01/04 09:34:11;;;;;;;2.20;2.00;;;6.60;99.90;;;;;;4951795;28;20051;-86
2023/01/04 09:36:43;;;;;;;2.75;2.63;;;6.50;99.90;;;;;;4951184;28;20086;-85
2023/01/04 09:39:12;;;;;;;1.77;1.60;;;6.50;99.90;;;;;;4960397;28;20593;-85
2023/01/04 09:41:58;;;;;;;1.30;1.20;;;6.80;99.90;;;;;;4936780;28;20522;-85
2023/01/04 09:44:40;;;;;;;1.63;1.50;;;7.60;99.90;;;;;;4970211;28;20399;-86
2023/01/04 09:47:28;;;;;;;;;;;8.00;99.90;;;;;;4953344;28;20077;-85
2023/01/04 09:50:05;;;;;;;1.58;1.48;;;7.70;99.90;;;;;;4970661;28;19922;-87
2023/01/04 09:52:41;;;;;;;2.10;1.70;;;7.50;99.90;;;;;;4935664;28;20426;-86
2023/01/04 09:55:44;;;;;;;2.28;2.05;;;7.40;99.90;;;;;;4970104;28;20066;-85
2023/01/04 09:58:27;;;;;;;1.85;1.75;;;7.90;99.90;;;;;;4912328;28;20061;-85
2023/01/04 10:01:10;;;;;;;3.65;1.65;;;7.70;99.90;;;;;;4952647;28;20058;-85
2023/01/04 10:03:40;;;;;;;1.67;1.58;;;7.40;99.90;;;;;;4936667;28;20046;-85
2023/01/04 10:06:11;;;;;;;1.63;1.52;;;7.20;99.90;;;;;;4953391;28;20042;-85
2023/01/04 10:08:41;;;;;;;1.63;1.53;;;7.20;99.90;;;;;;4935324;28;20042;-85
2023/01/04 10:11:18;;;;;;;1.80;1.67;;;7.10;99.90;;;;;;4969444;28;20298;-86
2023/01/04 10:13:57;;;;;;;1.52;1.38;;;7.20;99.90;;;;;;4952284;28;20047;-86
2023/01/04 10:17:09;;;;;;;1.23;1.20;;;7.20;99.90;;;;;;4969341;28;20469;-85
2023/01/04 10:20:01;;;;;;;1.67;1.58;;;7.10;99.90;;;;;;4969548;28;20596;-85
2023/01/04 10:23:01;;;;;;;1.70;1.60;;;7.00;99.90;;;;;;4961231;28;20430;-86
2023/01/04 10:25:52;;;;;;;2.20;1.67;;;6.90;99.90;;;;;;4947702;28;20063;-85
2023/01/04 10:28:54;;;;;;;2.05;1.95;;;6.80;99.90;;;;;;4949421;28;20043;-85
2023/01/04 10:31:49;;;;;;;3.30;1.88;;;6.90;99.90;;;;;;4933423;29;20052;-85
2023/01/04 10:34:23;;;;;;;1.30;1.20;;;6.90;99.90;;;;;;4921009;29;20055;-85
2023/01/04 10:37:03;;;;;;;2.47;2.35;;;6.90;99.90;;;;;;4933116;29;20073;-86
2023/01/04 10:39:34;;;;;;;1.80;1.70;;;6.90;99.90;;;;;;4961202;28;20763;-86
2023/01/04 10:42:15;;;;;;;2.15;1.95;;;6.90;99.90;;;;;;4969532;28;20513;-85
2023/01/04 10:45:18;;;;;;;1.40;1.30;;;6.90;99.90;;;;;;4969032;28;20050;-85
2023/01/04 10:47:49;;;;;;;1.40;1.30;;;6.90;99.90;;;;;;4944611;28;20434;-85
2023/01/04 10:50:23;;;;;;;1.50;1.23;;;6.90;99.90;;;;;;4969553;28;20058;-85
2023/01/04 10:52:58;;;;;;;2.22;1.42;;;7.00;99.90;;;;;;4968390;28;20427;-85
2023/01/04 10:55:37;;;;;;;1.98;1.60;;;7.00;99.90;;;;;;4969348;28;20418;-85
2023/01/04 10:58:08;;;;;;;1.60;1.50;;;7.00;99.90;;;;;;4951906;28;20506;-85
2023/01/04 11:00:44;;;;;;;2.35;2.25;;;7.10;99.90;;;;;;4968779;28;20415;-85
2023/01/04 11:03:21;;;;;;;1.58;1.48;;;7.10;99.90;;;;;;4969246;28;20055;-85
2023/01/04 11:06:10;;;;;;;1.92;1.83;;;7.10;99.90;;;;;;4949399;28;20043;-85
2023/01/04 11:08:59;;;;;;;1.83;1.73;;;7.30;99.90;;;;;;4968440;28;20537;-85
2023/01/04 11:11:36;;;;;;;1.65;1.65;;;7.40;99.90;;;;;;4934020;28;20047;-85
2023/01/04 11:14:04;;;;;;;1.50;1.40;;;7.50;99.90;;;;;;4969628;28;20062;-84
2023/01/04 11:16:32;;;;;;;1.55;1.38;;;7.50;99.90;;;;;;4969548;28;20537;-85
2023/01/04 11:19:00;;;;;;;1.58;1.50;;;7.40;99.90;;;;;;4936640;28;20420;-85
2023/01/04 11:21:33;;;;;;;1.48;1.38;;;7.40;99.90;;;;;;4969285;28;20047;-85
2023/01/04 11:24:05;;;;;;;1.30;1.20;;;7.40;99.90;;;;;;4933380;29;20058;-85
2023/01/04 11:26:54;;;;;;;1.98;1.40;;;7.40;99.90;;;;;;4950269;29;20051;-85
2023/01/04 11:29:31;;;;;;;1.52;1.05;;;7.30;99.90;;;;;;4932864;29;20039;-84
2023/01/04 11:32:05;;;;;;;2.83;1.60;;;7.20;99.90;;;;;;4949148;29;20047;-85
2023/01/04 11:34:56;;;;;;;1.90;1.80;;;7.20;99.90;;;;;;4948856;28;20507;-85
2023/01/04 11:37:26;;;;;;;1.45;1.17;;;7.30;99.90;;;;;;4931195;29;20062;-84
2023/01/04 11:40:19;;;;;;;0.70;0.70;;;7.20;99.90;;;;;;4962886;28;20712;-85
2023/01/04 11:43:15;;;;;;;1.52;1.38;;;7.20;99.90;;;;;;4914919;28;20051;-85
2023/01/04 11:46:06;;;;;;;1.50;1.40;;;7.30;99.90;;;;;;4968127;28;20046;-86
2023/01/04 11:48:40;;;;;;;2.75;1.00;;;7.40;99.90;;;;;;4949112;28;20522;-85
2023/01/04 11:51:35;;;;;;;1.58;0.80;;;7.50;99.90;;;;;;4972914;28;20051;-85
2023/01/04 11:54:13;;;;;;;0.90;0.90;;;7.60;99.90;;;;;;4938248;28;20061;-85
2023/01/04 11:57:16;;;;;;;2.75;1.42;;;7.70;99.90;;;;;;4938670;28;20038;-85
2023/01/04 11:59:44;;;;;;;1.00;1.00;;;7.80;99.90;;;;;;4954808;28;20058;-85
2023/01/04 12:02:25;;;;;;;1.00;0.98;;;7.80;99.90;;;;;;4972077;28;20054;-85
2023/01/04 12:05:22;;;;;;;1.15;1.05;;;7.70;99.90;;;;;;4955118;28;20043;-84
2023/01/04 12:07:57;;;;;;;0.65;0.65;;;7.80;99.90;;;;;;4938790;28;20050;-85
2023/01/04 12:10:26;;;;;;;0.93;0.93;;;7.90;99.90;;;;;;4955231;28;20528;-84
2023/01/04 12:12:58;;;;;;;1.20;0.93;;;7.90;99.90;;;;;;4955155;28;20043;-85
2023/01/04 12:15:37;;;;;;;;;;;7.90;99.90;;;;;;4972746;28;20057;-84
2023/01/04 12:18:16;;;;;;;0.90;0.82;;;7.90;99.90;;;;;;4972481;28;19984;-85
2023/01/04 12:20:44;;;;;;;1.20;1.05;;;8.10;99.90;;;;;;4974798;28;20041;-85
2023/01/04 12:23:12;;;;;;;0.93;0.70;;;8.10;99.90;;;;;;4963282;28;20057;-84
2023/01/04 12:25:44;;;;;;;1.13;1.13;;;8.10;99.90;;;;;;4954517;28;20051;-84
2023/01/04 12:28:34;;;;;;;1.02;1.02;;;8.00;99.90;;;;;;4972311;28;20057;-85
2023/01/04 12:31:20;;;;;;;0.60;0.60;;;8.10;99.90;;;;;;4955114;28;20054;-84
2023/01/04 12:33:55;;;;;;;0.65;0.65;;;8.10;99.90;;;;;;4969645;28;20054;-84
2023/01/04 12:36:41;;;;;;;1.25;1.15;;;8.10;99.90;;;;;;4972177;28;20043;-85
2023/01/04 12:39:15;;;;;;;1.02;0.75;;;8.10;99.90;;;;;;4975083;28;20051;-85
2023/01/04 12:41:59;;;;;;;0.93;0.90;;;8.10;99.90;;;;;;4958274;28;20054;-84
2023/01/04 12:44:45;;;;;;;0.80;0.80;;;8.10;99.90;;;;;;4976518;28;20058;-84
2023/01/04 12:50:17;;;;;;;0.75;0.75;;;8.20;99.90;;;;;;4949414;28;20073;-84
2023/01/04 12:52:53;;;;;;;0.88;0.80;;;8.10;99.90;;;;;;4975277;28;20035;-84
2023/01/04 12:55:43;;;;;;;1.27;0.88;;;8.10;99.90;;;;;;4976380;28;20034;-85
2023/01/04 12:58:26;;;;;;;1.67;0.85;;;8.20;99.90;;;;;;4958452;28;20054;-84
2023/01/04 13:01:24;;;;;;;1.17;0.85;;;8.20;99.90;;;;;;4974900;28;20047;-85
2023/01/04 13:07:20;;;;;;;0.60;0.60;;;8.20;99.90;;;;;;4975380;28;20047;-83
2023/01/04 13:09:58;;;;;;;1.13;0.98;;;8.20;99.90;;;;;;4942932;28;20055;-84
2023/01/04 13:12:45;;;;;;;0.90;0.90;;;8.20;99.90;;;;;;4975257;28;20046;-84
2023/01/04 13:15:40;;;;;;;0.82;0.82;;;8.30;99.90;;;;;;4976564;28;20054;-84
2023/01/04 13:18:39;;;;;;;0.60;0.60;;;8.30;99.90;;;;;;4960138;28;20058;-84
2023/01/04 13:21:11;;;;;;;1.17;1.08;;;8.30;99.90;;;;;;4922926;29;20434;-85
2023/01/04 13:23:48;;;;;;;0.80;0.80;;;8.30;99.90;;;;;;4954276;28;20046;-84
2023/01/04 13:26:47;;;;;;;0.65;0.65;;;8.40;99.90;;;;;;4959351;28;20054;-85
2023/01/04 13:29:32;;;;;;;1.33;1.15;;;8.40;99.90;;;;;;4975022;28;20047;-84
2023/01/04 13:32:03;;;;;;;1.95;1.25;;;8.30;99.90;;;;;;4974866;28;20050;-82
2023/01/04 13:34:34;;;;;;;0.70;0.70;;;8.30;99.90;;;;;;4957175;28;20406;-84
2023/01/04 13:37:10;;;;;;;0.88;0.80;;;8.50;99.90;;;;;;4951818;28;20054;-89
2023/01/04 13:39:41;;;;;;;1.13;1.02;;;8.60;99.90;;;;;;4969621;28;20051;-83
2023/01/04 13:42:26;;;;;;;0.65;0.65;;;8.70;99.90;;;;;;4953156;28;20047;-79
2023/01/04 13:49:14;;;;;;;0.65;0.65;;;8.90;99.90;;;;;;5017842;27;20390;-48
2023/01/04 13:51:42;;;;;;;1.30;0.98;;;8.80;99.90;;;;;;5005629;28;20039;-46
2023/01/04 13:54:22;;;;;;;0.57;0.55;;;8.80;99.90;;;;;;5004500;28;20501;-47
2023/01/04 13:56:51;;;;;;;0.70;0.70;;;8.80;99.90;;;;;;5005687;28;20046;-49
2023/01/04 13:59:22;;;;;;;1.65;0.60;;;8.90;99.90;;;;;;4996044;28;20058;-49
2023/01/04 14:01:50;;;;;;;0.80;0.80;;;8.90;99.90;;;;;;4996654;28;20046;-51
2023/01/04 14:04:27;;;;;;;0.70;0.70;;;8.80;99.90;;;;;;4979439;28;20666;-49
2023/01/04 14:06:57;;;;;;;0.60;0.60;;;9.00;99.90;;;;;;4980192;28;20046;-51
2023/01/04 14:09:28;;;;;;;0.77;0.77;;;9.00;99.90;;;;;;4982188;28;20520;-47
2023/01/04 14:11:58;;;;;;;0.82;0.50;;;9.00;99.90;;;;;;5003916;28;20617;-47
2023/01/04 14:14:56;;;;;;;0.60;0.60;;;9.00;99.90;;;;;;5016822;28;20118;-49
2023/01/04 14:17:30;;;;;;;1.40;0.68;;;8.90;99.90;;;;;;5004737;28;20062;-49
2023/01/04 14:19:59;;;;;;;0.85;0.80;;;8.80;99.90;;;;;;5004746;28;20323;-49
2023/01/04 14:22:38;;;;;;;0.65;0.65;;;8.70;99.90;;;;;;5004185;28;20065;-47
2023/01/04 14:25:39;;;;;;;5.05;1.20;;;8.70;99.90;;;;;;5004577;28;20048;-47
2023/01/04 14:28:29;;;;;;;;;;;8.80;99.90;;;;;;5005164;28;20388;-49
2023/01/04 14:31:02;;;;;;;0.88;0.65;;;8.90;99.90;;;;;;5005279;28;19921;-50
2023/01/04 14:33:35;;;;;;;0.88;0.88;;;8.90;99.90;;;;;;5003615;28;20428;-48
2023/01/04 14:36:05;;;;;;;0.60;0.60;;;8.90;99.90;;;;;;5004345;28;20374;-50
2023/01/04 14:38:36;;;;;;;0.73;0.73;;;8.90;99.90;;;;;;5003778;28;20444;-51
2023/01/04 14:41:31;;;;;;;0.80;0.80;;;8.90;99.90;;;;;;5003472;28;20046;-49